Time;durP1;ratioP1;P1;durP2;ratioP2;P2;SDS_P1;SDS_P2;PMS_P1;PMS_P2;Temp;Humidity;BMP_temperature;BMP_pressure;BME280_temperature;BME280_humidity;BME280_pressure;Samples;Min_cycle;Max_cycle;Signal;HPM_P1;HPM_P2
2022/03/05 00:00:37;;;;;;;11.13;6.70;;;2.90;57.10;;;;;;912716;154;27793;-76
2022/03/05 00:03:04;;;;;;;9.63;6.30;;;2.90;57.10;;;;;;911473;154;27827;-77
2022/03/05 00:05:31;;;;;;;10.47;7.23;;;2.80;57.10;;;;;;911840;154;27389;-76
2022/03/05 00:07:57;;;;;;;11.33;7.40;;;2.80;57.20;;;;;;913147;154;27385;-77
2022/03/05 00:10:24;;;;;;;9.20;5.97;;;2.70;57.30;;;;;;912039;154;27459;-78
2022/03/05 00:12:51;;;;;;;9.83;7.10;;;2.70;57.40;;;;;;912889;154;27491;-79
2022/03/05 00:15:17;;;;;;;8.50;6.53;;;2.70;57.50;;;;;;912151;154;27511;-76
2022/03/05 00:17:43;;;;;;;9.90;5.83;;;2.60;57.60;;;;;;911236;154;27459;-76
2022/03/05 00:20:10;;;;;;;11.47;6.53;;;2.60;57.60;;;;;;911860;154;27302;-79
2022/03/05 00:22:37;;;;;;;9.93;6.70;;;2.60;57.70;;;;;;912712;153;27445;-77
2022/03/05 00:25:03;;;;;;;11.77;6.20;;;2.50;57.70;;;;;;913375;154;27469;-76
2022/03/05 00:27:30;;;;;;;9.97;6.60;;;2.50;57.90;;;;;;913875;153;27340;-78
2022/03/05 00:29:57;;;;;;;7.67;5.93;;;2.50;57.90;;;;;;914077;153;27484;-77
2022/03/05 00:32:23;;;;;;;9.33;6.73;;;2.40;57.90;;;;;;909443;155;27400;-77
2022/03/05 00:34:50;;;;;;;8.03;5.87;;;2.40;58.20;;;;;;931588;150;27386;-77
2022/03/05 00:37:16;;;;;;;8.27;6.30;;;2.30;58.10;;;;;;932772;150;27425;-76
2022/03/05 00:39:43;;;;;;;9.77;6.43;;;2.30;58.20;;;;;;930666;150;27331;-77
2022/03/05 00:42:09;;;;;;;9.50;6.30;;;2.30;58.30;;;;;;931060;151;27460;-77
2022/03/05 00:44:36;;;;;;;8.00;4.90;;;2.20;58.30;;;;;;931085;151;27382;-79
2022/03/05 00:47:03;;;;;;;9.03;5.57;;;2.20;58.30;;;;;;930523;151;27496;-79
2022/03/05 00:49:29;;;;;;;12.13;7.20;;;2.20;58.40;;;;;;928612;150;27379;-77
2022/03/05 00:51:56;;;;;;;10.03;5.97;;;2.20;58.50;;;;;;931425;150;27403;-75
2022/03/05 00:54:22;;;;;;;9.17;6.13;;;2.10;58.60;;;;;;912381;154;27477;-75
2022/03/05 00:56:49;;;;;;;11.17;7.20;;;2.10;58.70;;;;;;930212;150;27348;-76
2022/03/05 00:59:15;;;;;;;10.33;5.73;;;2.10;58.90;;;;;;930348;150;27381;-75
2022/03/05 01:01:42;;;;;;;10.67;6.97;;;2.00;58.80;;;;;;931162;150;27351;-75
2022/03/05 01:04:09;;;;;;;10.27;6.33;;;2.00;58.80;;;;;;931223;150;27507;-75
2022/03/05 01:06:35;;;;;;;8.50;5.40;;;2.00;59.00;;;;;;930996;150;27395;-75
2022/03/05 01:09:02;;;;;;;10.40;7.20;;;2.00;59.00;;;;;;930757;150;27471;-75
2022/03/05 01:11:28;;;;;;;12.20;7.57;;;2.00;59.00;;;;;;897857;157;27739;-75
2022/03/05 01:13:55;;;;;;;10.37;6.57;;;2.00;59.10;;;;;;899199;157;27366;-75
2022/03/05 01:16:21;;;;;;;8.60;6.17;;;1.90;58.50;;;;;;930756;151;27374;-76
2022/03/05 01:18:48;;;;;;;9.17;6.57;;;1.90;59.20;;;;;;932256;150;27464;-77
2022/03/05 01:21:15;;;;;;;9.07;6.13;;;1.90;59.20;;;;;;930309;150;27649;-76
2022/03/05 01:23:41;;;;;;;9.83;6.80;;;1.80;59.20;;;;;;931562;150;27451;-77
2022/03/05 01:26:08;;;;;;;8.87;6.60;;;1.80;59.20;;;;;;933943;150;27395;-74
2022/03/05 01:28:34;;;;;;;10.57;6.53;;;1.70;59.30;;;;;;903320;155;27759;-75
2022/03/05 01:31:01;;;;;;;11.43;6.53;;;1.70;59.30;;;;;;934386;150;27321;-75
2022/03/05 01:33:28;;;;;;;10.53;6.53;;;1.60;59.40;;;;;;934282;150;27353;-75
2022/03/05 01:35:54;;;;;;;9.73;5.70;;;1.60;59.40;;;;;;902948;156;27410;-75
2022/03/05 01:38:21;;;;;;;10.20;6.40;;;1.60;59.60;;;;;;934790;150;27373;-75
2022/03/05 01:40:48;;;;;;;8.80;6.03;;;1.50;59.60;;;;;;934655;150;27346;-76
2022/03/05 01:43:14;;;;;;;10.77;6.90;;;1.50;59.70;;;;;;934545;150;27496;-75
2022/03/05 01:45:40;;;;;;;13.27;7.27;;;1.50;59.80;;;;;;934932;150;27407;-75
2022/03/05 01:48:07;;;;;;;11.30;6.90;;;1.40;59.90;;;;;;932818;151;27346;-76
2022/03/05 01:50:34;;;;;;;11.23;7.73;;;1.40;60.00;;;;;;935071;151;27421;-75
2022/03/05 01:53:00;;;;;;;13.40;7.93;;;1.40;60.70;;;;;;934685;151;27279;-75
2022/03/05 01:55:27;;;;;;;10.03;7.13;;;1.40;60.10;;;;;;935051;150;27436;-75
2022/03/05 01:57:53;;;;;;;10.87;7.63;;;1.40;60.30;;;;;;934738;150;27343;-77
2022/03/05 02:00:20;;;;;;;11.83;7.07;;;1.30;60.30;;;;;;934264;150;27335;-77
2022/03/05 02:02:47;;;;;;;11.73;7.07;;;1.30;60.30;;;;;;934666;150;27386;-75
2022/03/05 02:05:13;;;;;;;11.30;7.27;;;1.30;60.40;;;;;;918536;153;27426;-75
2022/03/05 02:07:40;;;;;;;11.07;6.60;;;1.30;60.60;;;;;;934088;148;27354;-75
2022/03/05 02:10:06;;;;;;;12.37;8.00;;;1.30;60.60;;;;;;918402;153;27408;-75
2022/03/05 02:12:33;;;;;;;13.10;8.37;;;1.30;60.70;;;;;;934384;150;27367;-75
2022/03/05 02:15:00;;;;;;;13.17;8.10;;;1.30;60.90;;;;;;934513;149;27334;-76
2022/03/05 02:17:27;;;;;;;12.57;7.67;;;1.20;60.70;;;;;;934618;150;27414;-77
2022/03/05 02:19:53;;;;;;;11.97;7.83;;;1.30;60.60;;;;;;934054;150;27371;-75
2022/03/05 02:22:19;;;;;;;11.30;7.43;;;1.30;60.90;;;;;;934585;150;27987;-75
2022/03/05 02:24:46;;;;;;;13.03;7.77;;;1.30;61.00;;;;;;936069;148;27969;-76
2022/03/05 02:27:12;;;;;;;10.67;7.23;;;1.30;61.20;;;;;;902826;156;27450;-75
2022/03/05 02:29:39;;;;;;;12.70;7.93;;;1.30;61.40;;;;;;934888;150;27421;-75
2022/03/05 02:32:06;;;;;;;10.40;7.80;;;1.40;61.30;;;;;;933942;150;27331;-76
2022/03/05 02:34:32;;;;;;;12.77;7.23;;;1.40;61.30;;;;;;934458;150;27385;-77
2022/03/05 02:36:59;;;;;;;11.30;7.33;;;1.40;61.40;;;;;;919188;153;27538;-76
2022/03/05 02:39:25;;;;;;;13.10;7.93;;;1.40;61.30;;;;;;934957;150;27336;-75
2022/03/05 02:41:52;;;;;;;11.63;7.33;;;1.40;61.40;;;;;;903477;154;27412;-75
2022/03/05 02:44:19;;;;;;;11.43;6.67;;;1.40;61.30;;;;;;902943;156;27399;-75
2022/03/05 02:46:45;;;;;;;10.70;6.13;;;1.40;61.40;;;;;;934352;150;27382;-75
2022/03/05 02:49:12;;;;;;;8.27;6.53;;;1.40;61.30;;;;;;934258;150;27412;-78
2022/03/05 02:51:38;;;;;;;9.53;6.97;;;1.40;61.30;;;;;;934317;150;27354;-77
2022/03/05 02:54:05;;;;;;;13.47;7.43;;;1.40;61.30;;;;;;935004;150;27398;-75
2022/03/05 02:56:32;;;;;;;10.80;6.97;;;1.40;61.40;;;;;;935458;150;27483;-74
2022/03/05 02:58:58;;;;;;;11.83;7.20;;;1.30;61.40;;;;;;902316;156;27399;-75
2022/03/05 03:01:25;;;;;;;11.43;6.97;;;1.30;61.40;;;;;;935164;151;27300;-75
2022/03/05 03:03:51;;;;;;;11.90;7.10;;;1.30;62.50;;;;;;934865;150;27431;-76
2022/03/05 03:06:18;;;;;;;11.73;7.57;;;1.30;61.60;;;;;;902549;155;27360;-75
2022/03/05 03:08:44;;;;;;;8.17;6.33;;;1.30;61.60;;;;;;934144;150;27429;-76
2022/03/05 03:11:11;;;;;;;14.20;7.23;;;1.20;61.70;;;;;;933984;150;27386;-77
2022/03/05 03:13:38;;;;;;;12.23;7.93;;;1.20;61.70;;;;;;934805;150;28148;-76
2022/03/05 03:16:04;;;;;;;11.77;8.33;;;1.20;61.90;;;;;;935076;150;27343;-74
2022/03/05 03:18:31;;;;;;;10.73;7.40;;;1.20;62.00;;;;;;935211;150;27821;-75
2022/03/05 03:20:57;;;;;;;13.67;7.70;;;1.20;62.20;;;;;;936923;150;27315;-75
2022/03/05 03:23:24;;;;;;;10.87;6.90;;;1.20;62.20;;;;;;934368;150;27376;-75
2022/03/05 03:25:51;;;;;;;10.47;7.07;;;1.20;62.30;;;;;;935193;150;27410;-76
2022/03/05 03:28:17;;;;;;;12.83;7.13;;;1.20;62.30;;;;;;934556;150;27464;-75
2022/03/05 03:30:44;;;;;;;11.70;7.20;;;1.10;62.10;;;;;;934930;150;27398;-77
2022/03/05 03:33:10;;;;;;;9.80;7.23;;;1.10;62.00;;;;;;934009;150;27419;-74
2022/03/05 03:35:37;;;;;;;10.50;6.30;;;1.10;61.80;;;;;;934117;150;27369;-76
2022/03/05 03:38:03;;;;;;;9.27;6.53;;;1.00;62.70;;;;;;934995;150;27321;-76
2022/03/05 03:40:30;;;;;;;13.80;7.63;;;0.90;61.70;;;;;;934455;150;27346;-75
2022/03/05 03:42:57;;;;;;;11.90;7.63;;;0.90;61.70;;;;;;934152;150;27367;-75
2022/03/05 03:45:23;;;;;;;9.80;5.63;;;0.80;61.70;;;;;;902324;156;27423;-75
2022/03/05 03:47:50;;;;;;;11.23;7.43;;;0.70;61.80;;;;;;934873;150;27458;-75
2022/03/05 03:50:16;;;;;;;10.63;7.23;;;0.70;62.00;;;;;;935402;150;27392;-78
2022/03/05 03:52:43;;;;;;;9.57;6.83;;;0.60;62.10;;;;;;933747;150;27351;-77
2022/03/05 03:55:10;;;;;;;8.10;6.50;;;0.60;62.30;;;;;;903519;155;27409;-77
2022/03/05 03:57:39;;;;;;;10.43;7.23;;;0.50;62.40;;;;;;903185;156;27542;-77
2022/03/05 04:00:05;;;;;;;10.00;6.40;;;0.50;62.60;;;;;;934730;150;27386;-78
2022/03/05 04:02:32;;;;;;;10.17;6.63;;;0.50;62.70;;;;;;934314;150;27390;-77
2022/03/05 04:04:59;;;;;;;15.00;8.20;;;0.40;62.70;;;;;;934419;150;27938;-78
2022/03/05 04:10:10;;;;;;;13.47;7.40;;;0.40;62.90;;;;;;934769;150;27393;-77
2022/03/05 04:12:36;;;;;;;13.07;8.07;;;0.30;62.70;;;;;;934328;150;27335;-77
2022/03/05 04:15:06;;;;;;;12.87;7.43;;;0.30;62.80;;;;;;935414;150;27442;-77
2022/03/05 04:17:32;;;;;;;9.33;5.50;;;0.20;62.80;;;;;;934489;150;27383;-77
2022/03/05 04:19:59;;;;;;;9.60;6.00;;;0.20;62.90;;;;;;933935;150;27526;-77
2022/03/05 04:22:26;;;;;;;13.17;7.70;;;0.20;63.00;;;;;;934605;150;27378;-77
2022/03/05 04:24:52;;;;;;;11.90;8.27;;;0.10;63.10;;;;;;934563;150;27330;-77
2022/03/05 04:27:19;;;;;;;14.53;7.60;;;0.10;63.20;;;;;;929989;150;27385;-77
2022/03/05 04:29:45;;;;;;;13.77;7.77;;;0.10;63.20;;;;;;927964;150;27398;-77
2022/03/05 04:32:12;;;;;;;11.27;7.10;;;0.00;63.20;;;;;;929324;150;27352;-77
2022/03/05 04:34:38;;;;;;;13.47;8.00;;;0.00;63.20;;;;;;928451;150;27359;-77
2022/03/05 04:37:05;;;;;;;12.10;8.47;;;0.00;63.30;;;;;;929513;150;27468;-77
2022/03/05 04:39:32;;;;;;;14.77;7.93;;;0.00;63.30;;;;;;928271;150;27504;-77
2022/03/05 04:41:58;;;;;;;12.17;7.40;;;-0.10;63.30;;;;;;897418;156;27391;-78
2022/03/05 04:44:25;;;;;;;11.83;6.90;;;-0.10;63.30;;;;;;897453;155;27472;-77
2022/03/05 04:46:51;;;;;;;10.33;6.53;;;-0.10;63.40;;;;;;897467;156;27507;-77
2022/03/05 04:49:18;;;;;;;9.13;6.03;;;-0.20;63.40;;;;;;912119;154;27323;-77
2022/03/05 04:51:45;;;;;;;12.83;8.03;;;-0.20;63.50;;;;;;911619;154;27422;-77
2022/03/05 04:54:11;;;;;;;13.33;7.60;;;-0.20;63.60;;;;;;912523;152;27388;-77
2022/03/05 04:56:38;;;;;;;13.50;7.90;;;-0.20;63.60;;;;;;897153;157;27422;-77
2022/03/05 04:59:04;;;;;;;13.07;7.57;;;-0.20;63.80;;;;;;912833;153;27373;-77
2022/03/05 05:01:31;;;;;;;13.70;8.40;;;-0.30;63.80;;;;;;913400;154;27433;-77
2022/03/05 05:03:58;;;;;;;13.10;7.60;;;-0.30;63.80;;;;;;912928;154;27416;-77
2022/03/05 05:06:24;;;;;;;11.33;7.07;;;-0.30;63.90;;;;;;912394;153;27310;-77
2022/03/05 05:08:51;;;;;;;13.90;8.10;;;-0.30;64.00;;;;;;913762;153;27769;-77
2022/03/05 05:11:17;;;;;;;13.00;7.53;;;-0.30;64.10;;;;;;912133;154;27379;-77
2022/03/05 05:13:44;;;;;;;13.53;7.67;;;-0.30;64.10;;;;;;912780;154;27406;-77
2022/03/05 05:16:10;;;;;;;11.20;6.83;;;-0.40;64.00;;;;;;912971;154;27495;-77
2022/03/05 05:18:37;;;;;;;14.67;7.57;;;-0.40;64.10;;;;;;911435;154;27357;-77
2022/03/05 05:21:04;;;;;;;13.40;7.80;;;-0.40;64.10;;;;;;912382;154;27463;-77
2022/03/05 05:23:30;;;;;;;13.63;7.43;;;-0.40;64.10;;;;;;897111;156;27449;-77
2022/03/05 05:25:57;;;;;;;14.10;8.20;;;-0.50;64.10;;;;;;911915;154;27343;-77
2022/03/05 05:28:23;;;;;;;13.43;7.93;;;-0.50;64.20;;;;;;928595;151;27492;-77
2022/03/05 05:30:50;;;;;;;12.20;7.00;;;-0.50;64.20;;;;;;929082;150;27483;-77
2022/03/05 05:33:17;;;;;;;15.67;9.70;;;-0.50;64.30;;;;;;928047;150;27470;-77
2022/03/05 05:35:43;;;;;;;14.27;8.90;;;-0.50;64.40;;;;;;928295;151;27372;-77
2022/03/05 05:38:10;;;;;;;11.97;8.10;;;-0.50;64.70;;;;;;928792;151;27360;-77
2022/03/05 05:40:36;;;;;;;13.57;7.63;;;-0.60;64.50;;;;;;928381;151;27352;-77
2022/03/05 05:43:03;;;;;;;11.93;7.57;;;-0.60;64.60;;;;;;927992;150;27422;-77
2022/03/05 05:45:30;;;;;;;14.53;8.20;;;-0.60;64.60;;;;;;928331;152;27484;-77
2022/03/05 05:47:58;;;;;;;12.83;6.93;;;-0.60;65.30;;;;;;927915;150;27384;-77
2022/03/05 05:50:23;;;;;;;14.73;7.70;;;-0.70;64.70;;;;;;928242;150;27452;-77
2022/03/05 05:52:49;;;;;;;12.53;8.57;;;-0.70;64.90;;;;;;928103;151;27384;-77
2022/03/05 05:55:16;;;;;;;11.77;7.10;;;-0.70;65.00;;;;;;927887;150;28139;-77
2022/03/05 05:57:42;;;;;;;11.57;7.40;;;-0.70;65.10;;;;;;928116;150;27367;-77
2022/03/05 06:00:09;;;;;;;9.30;5.87;;;-0.70;65.20;;;;;;929726;150;27357;-76
2022/03/05 06:02:37;;;;;;;13.23;7.53;;;-0.70;65.20;;;;;;928680;150;27387;-77
2022/03/05 06:05:02;;;;;;;12.73;7.53;;;-0.70;65.30;;;;;;928236;151;27459;-76
2022/03/05 06:07:29;;;;;;;12.20;8.07;;;-0.70;65.30;;;;;;928830;151;27530;-77
2022/03/05 06:09:56;;;;;;;11.23;6.37;;;-0.70;65.50;;;;;;927259;151;28362;-77
2022/03/05 06:12:22;;;;;;;17.97;9.10;;;-0.70;65.40;;;;;;929597;150;28518;-77
2022/03/05 06:14:49;;;;;;;14.43;9.17;;;-0.70;65.60;;;;;;897551;156;27895;-77
2022/03/05 06:17:15;;;;;;;12.40;8.27;;;-0.70;65.70;;;;;;912369;154;27330;-77
2022/03/05 06:19:44;;;;;;;13.00;8.47;;;-0.70;65.80;;;;;;912139;154;27327;-77
2022/03/05 06:22:09;;;;;;;17.67;8.93;;;-0.60;66.20;;;;;;912044;154;27371;-77
2022/03/05 06:24:35;;;;;;;15.00;9.20;;;-0.50;66.60;;;;;;912311;154;27386;-76
2022/03/05 06:27:02;;;;;;;15.33;9.50;;;-0.40;66.90;;;;;;928519;151;27492;-78
2022/03/05 06:29:28;;;;;;;15.83;9.57;;;-0.20;67.40;;;;;;931438;150;27508;-77
2022/03/05 06:31:55;;;;;;;15.53;9.70;;;0.10;67.80;;;;;;930673;151;27313;-78
2022/03/05 06:34:22;;;;;;;17.07;9.23;;;0.40;68.10;;;;;;930805;150;27356;-78
2022/03/05 06:36:48;;;;;;;16.90;9.67;;;0.70;68.30;;;;;;931561;151;27323;-77
2022/03/05 06:39:15;;;;;;;14.30;9.47;;;1.00;68.50;;;;;;931407;151;27909;-77
2022/03/05 06:41:41;;;;;;;10.67;7.83;;;1.40;69.40;;;;;;930594;151;27420;-77
2022/03/05 06:44:08;;;;;;;14.50;9.23;;;1.90;68.60;;;;;;931271;151;27375;-77
2022/03/05 06:46:34;;;;;;;12.20;8.67;;;2.40;68.50;;;;;;931183;150;28001;-78
2022/03/05 06:49:01;;;;;;;15.30;10.93;;;2.90;68.40;;;;;;931016;150;27784;-77
2022/03/05 06:51:28;;;;;;;13.90;9.40;;;3.40;68.20;;;;;;930862;151;27592;-78
2022/03/05 06:53:54;;;;;;;12.57;9.47;;;4.00;68.00;;;;;;931974;150;27309;-78
2022/03/05 06:56:21;;;;;;;13.77;10.20;;;4.60;67.40;;;;;;931287;150;27850;-78
2022/03/05 06:58:47;;;;;;;14.80;9.67;;;5.20;66.90;;;;;;931069;151;27363;-78
2022/03/05 07:01:14;;;;;;;13.27;9.27;;;5.80;66.40;;;;;;930655;150;27399;-78
2022/03/05 07:03:41;;;;;;;15.53;10.47;;;6.30;65.60;;;;;;930650;150;27966;-78
2022/03/05 07:06:07;;;;;;;15.10;10.80;;;7.00;65.00;;;;;;931526;151;27411;-78
2022/03/05 07:08:34;;;;;;;14.67;10.27;;;7.60;64.40;;;;;;930467;151;27376;-78
2022/03/05 07:11:00;;;;;;;15.87;11.60;;;8.10;63.70;;;;;;931252;150;27596;-78
2022/03/05 07:13:27;;;;;;;19.03;13.23;;;8.70;63.80;;;;;;931739;151;27364;-77
2022/03/05 07:15:53;;;;;;;16.27;12.30;;;9.30;61.40;;;;;;931175;150;27453;-77
2022/03/05 07:18:20;;;;;;;16.13;11.47;;;9.90;61.20;;;;;;931387;150;27497;-77
2022/03/05 07:20:47;;;;;;;17.73;12.53;;;10.40;60.40;;;;;;931570;150;27496;-78
2022/03/05 07:23:13;;;;;;;15.60;12.37;;;10.90;59.60;;;;;;931243;150;27745;-78
2022/03/05 07:25:40;;;;;;;18.17;12.27;;;11.30;59.40;;;;;;930711;151;27364;-78
2022/03/05 07:28:06;;;;;;;17.57;11.57;;;11.70;58.20;;;;;;930465;151;27313;-78
2022/03/05 07:30:33;;;;;;;18.27;12.30;;;12.10;57.80;;;;;;930074;152;27332;-78
2022/03/05 07:33:00;;;;;;;15.50;11.03;;;12.50;57.30;;;;;;928537;151;28021;-78
2022/03/05 07:35:26;;;;;;;14.67;10.90;;;12.90;56.90;;;;;;929409;150;27440;-78
2022/03/05 07:37:53;;;;;;;14.10;11.57;;;13.30;56.50;;;;;;928153;151;27383;-78
2022/03/05 07:40:19;;;;;;;14.77;11.83;;;13.70;56.20;;;;;;928271;151;27428;-78
2022/03/05 07:42:46;;;;;;;15.70;11.70;;;14.10;55.70;;;;;;927662;152;27461;-78
2022/03/05 07:45:13;;;;;;;13.73;10.90;;;14.50;55.40;;;;;;928199;152;27328;-78
2022/03/05 07:47:39;;;;;;;17.40;11.83;;;15.00;54.90;;;;;;929330;150;27316;-78
2022/03/05 07:50:06;;;;;;;17.92;10.75;;;15.40;54.40;;;;;;929164;151;27383;-78
2022/03/05 07:52:32;;;;;;;14.28;10.98;;;15.80;54.00;;;;;;928572;151;27471;-78
2022/03/05 07:54:59;;;;;;;13.93;11.07;;;16.20;53.50;;;;;;927863;151;27476;-78
2022/03/05 07:57:26;;;;;;;13.13;11.35;;;16.60;53.10;;;;;;928081;151;27290;-79
2022/03/05 07:59:52;;;;;;;15.38;11.38;;;17.00;52.70;;;;;;928381;152;27355;-79
2022/03/05 08:02:19;;;;;;;13.48;11.22;;;17.40;52.30;;;;;;928772;150;27361;-79
2022/03/05 08:04:47;;;;;;;13.50;10.90;;;17.80;51.90;;;;;;928027;152;27374;-79
2022/03/05 08:07:12;;;;;;;13.00;11.18;;;18.30;51.40;;;;;;927156;151;27368;-79
2022/03/05 08:09:40;;;;;;;12.82;10.60;;;18.70;50.60;;;;;;928874;152;27407;-79
2022/03/05 08:12:05;;;;;;;11.30;9.95;;;19.00;50.00;;;;;;928626;151;27457;-79
2022/03/05 08:14:32;;;;;;;9.58;8.65;;;19.40;49.60;;;;;;928287;150;27383;-79
2022/03/05 08:16:58;;;;;;;10.10;9.08;;;19.70;49.20;;;;;;928225;151;27378;-79
2022/03/05 08:19:25;;;;;;;10.40;9.40;;;20.00;48.50;;;;;;928194;150;27425;-79
2022/03/05 08:21:52;;;;;;;9.43;8.50;;;20.30;47.70;;;;;;927823;151;27302;-79
2022/03/05 08:24:18;;;;;;;9.10;8.10;;;20.50;47.10;;;;;;928113;151;27293;-79
2022/03/05 08:26:45;;;;;;;9.88;8.90;;;20.70;46.60;;;;;;929064;151;27428;-79
2022/03/05 08:29:11;;;;;;;9.45;8.50;;;20.80;46.00;;;;;;928596;151;27415;-79
2022/03/05 08:31:38;;;;;;;9.08;8.18;;;20.90;45.50;;;;;;927349;150;27517;-80
2022/03/05 08:34:04;;;;;;;8.95;8.03;;;20.80;45.00;;;;;;896175;156;27515;-79
2022/03/05 08:36:32;;;;;;;10.43;9.43;;;20.80;44.70;;;;;;918440;153;27477;-79
2022/03/05 08:38:58;;;;;;;10.80;9.03;;;20.70;43.80;;;;;;918353;153;27405;-79
2022/03/05 08:41:24;;;;;;;9.20;8.08;;;20.70;43.50;;;;;;917178;153;27586;-79
2022/03/05 08:43:51;;;;;;;8.75;7.85;;;20.50;43.60;;;;;;918508;153;27409;-79
2022/03/05 08:46:17;;;;;;;9.98;8.95;;;20.40;43.60;;;;;;918497;153;27951;-79
2022/03/05 08:48:44;;;;;;;10.45;9.03;;;20.30;43.90;;;;;;928787;150;27808;-79
2022/03/05 08:51:11;;;;;;;9.40;8.30;;;20.20;44.00;;;;;;928593;150;27385;-79
2022/03/05 08:53:37;;;;;;;9.60;8.60;;;20.20;44.00;;;;;;927945;150;27417;-79
2022/03/05 08:56:04;;;;;;;9.65;8.65;;;20.30;43.90;;;;;;928621;150;27340;-79
2022/03/05 08:58:30;;;;;;;9.75;8.75;;;20.30;43.60;;;;;;928400;150;27384;-80
2022/03/05 09:01:01;;;;;;;9.63;8.63;;;20.30;43.30;;;;;;928519;150;27398;-79
2022/03/05 09:03:24;;;;;;;9.88;8.88;;;20.30;43.00;;;;;;927210;150;27406;-79
2022/03/05 09:05:50;;;;;;;9.78;8.88;;;20.30;42.80;;;;;;928303;150;27370;-79
2022/03/05 09:08:17;;;;;;;8.58;7.70;;;20.20;42.40;;;;;;928361;150;28437;-79
2022/03/05 09:10:43;;;;;;;9.70;8.80;;;20.20;42.50;;;;;;928662;151;27383;-80
2022/03/05 09:13:10;;;;;;;10.78;9.18;;;20.10;42.30;;;;;;927735;150;27411;-80
2022/03/05 09:15:36;;;;;;;9.25;8.23;;;20.00;42.20;;;;;;927912;150;27340;-80
2022/03/05 09:18:03;;;;;;;9.75;8.75;;;20.00;42.70;;;;;;928165;150;27352;-80
2022/03/05 09:20:30;;;;;;;11.08;9.50;;;20.00;42.80;;;;;;928047;151;27365;-80
2022/03/05 09:22:56;;;;;;;10.18;9.03;;;20.00;42.60;;;;;;928653;151;27477;-80
2022/03/05 09:25:23;;;;;;;9.30;8.10;;;20.10;42.60;;;;;;928878;150;27384;-80
2022/03/05 09:27:49;;;;;;;11.80;9.30;;;20.10;42.70;;;;;;928150;151;27356;-80
2022/03/05 09:30:16;;;;;;;10.25;9.15;;;20.20;42.30;;;;;;928543;150;27429;-80
2022/03/05 09:32:44;;;;;;;8.25;7.50;;;20.20;42.20;;;;;;928383;150;27355;-80
2022/03/05 09:35:09;;;;;;;9.43;8.53;;;20.30;42.30;;;;;;927867;151;27751;-80
2022/03/05 09:37:36;;;;;;;8.65;7.80;;;20.30;42.40;;;;;;927795;151;27452;-80
2022/03/05 09:40:02;;;;;;;10.08;9.08;;;20.40;42.50;;;;;;927242;150;27374;-80
2022/03/05 09:42:29;;;;;;;10.00;8.50;;;20.50;42.50;;;;;;928066;150;27415;-80
2022/03/05 09:44:56;;;;;;;8.65;7.78;;;20.70;42.60;;;;;;928083;151;27472;-80
2022/03/05 09:47:22;;;;;;;9.13;8.18;;;20.80;42.40;;;;;;928038;151;27337;-80
2022/03/05 09:49:49;;;;;;;9.55;8.45;;;20.90;41.70;;;;;;927500;150;27764;-80
2022/03/05 09:52:15;;;;;;;8.85;7.95;;;21.00;41.30;;;;;;927460;150;27363;-80
2022/03/05 09:54:42;;;;;;;8.25;7.37;;;20.90;41.00;;;;;;927187;150;27349;-80
2022/03/05 09:57:11;;;;;;;8.68;7.50;;;20.80;40.60;;;;;;928451;150;27363;-79
2022/03/05 09:59:38;;;;;;;9.38;8.23;;;20.60;40.40;;;;;;927906;150;27896;-79
2022/03/05 10:02:05;;;;;;;9.13;8.05;;;20.30;40.30;;;;;;927950;151;27384;-79
2022/03/05 10:04:31;;;;;;;9.63;8.03;;;20.10;39.80;;;;;;927729;151;27307;-79
2022/03/05 10:07:10;;;;;;;8.30;7.42;;;19.80;40.00;;;;;;928167;151;27379;-79
2022/03/05 10:09:37;;;;;;;9.08;8.05;;;19.40;39.90;;;;;;928323;151;27331;-79
2022/03/05 10:12:03;;;;;;;9.08;8.18;;;19.10;40.00;;;;;;928527;150;27352;-79
2022/03/05 10:14:30;;;;;;;9.80;8.35;;;18.70;40.00;;;;;;915856;150;27438;-79
2022/03/05 10:17:01;;;;;;;9.05;8.15;;;18.40;40.00;;;;;;928170;151;27401;-79
2022/03/05 10:19:26;;;;;;;10.05;8.85;;;18.00;39.90;;;;;;927507;151;27406;-79
2022/03/05 10:21:59;;;;;;;9.63;8.63;;;17.70;39.40;;;;;;927650;151;27383;-79
2022/03/05 10:24:32;;;;;;;10.65;8.10;;;17.30;39.60;;;;;;928114;150;27439;-79
2022/03/05 10:26:58;;;;;;;9.93;8.35;;;16.90;40.00;;;;;;927277;151;27457;-79
2022/03/05 10:29:25;;;;;;;9.80;8.80;;;16.60;40.30;;;;;;928647;151;27335;-79
2022/03/05 10:31:57;;;;;;;11.63;9.10;;;16.30;40.60;;;;;;927714;151;27477;-79
2022/03/05 10:34:24;;;;;;;12.00;8.20;;;16.00;40.50;;;;;;896711;157;27489;-79
2022/03/05 10:37:03;;;;;;;9.57;7.93;;;15.80;40.80;;;;;;912008;154;27379;-79
2022/03/05 10:39:28;;;;;;;9.63;8.47;;;15.60;41.00;;;;;;913663;154;27345;-79
2022/03/05 10:41:55;;;;;;;9.83;8.37;;;15.30;41.30;;;;;;911841;154;27473;-79
2022/03/05 10:44:22;;;;;;;10.20;9.10;;;15.10;41.50;;;;;;912087;154;27424;-79
2022/03/05 10:46:54;;;;;;;11.33;8.97;;;15.00;41.60;;;;;;911331;154;27796;-79
2022/03/05 10:49:20;;;;;;;10.60;8.50;;;14.80;41.60;;;;;;915085;154;27395;-79
2022/03/05 10:51:49;;;;;;;9.40;8.23;;;14.60;41.80;;;;;;911937;154;27385;-79
2022/03/05 10:54:40;;;;;;;9.87;8.10;;;14.50;41.80;;;;;;895543;157;27339;-79
2022/03/05 10:57:09;;;;;;;8.07;7.23;;;14.30;41.70;;;;;;912585;151;28612;-80
2022/03/05 10:59:36;;;;;;;10.47;7.20;;;14.10;41.80;;;;;;912465;154;27406;-79
2022/03/05 11:02:02;;;;;;;9.57;7.30;;;13.90;41.90;;;;;;912335;154;27475;-79
2022/03/05 11:04:29;;;;;;;7.93;7.13;;;13.80;42.10;;;;;;912941;153;27480;-79
2022/03/05 11:06:55;;;;;;;10.73;7.00;;;13.70;42.20;;;;;;896652;156;27481;-79
2022/03/05 11:09:22;;;;;;;7.83;6.80;;;13.60;42.20;;;;;;896484;157;27425;-81
2022/03/05 11:11:49;;;;;;;8.27;7.00;;;13.50;42.30;;;;;;928236;152;27408;-79
2022/03/05 11:14:15;;;;;;;7.90;6.63;;;13.40;42.40;;;;;;897199;156;27361;-79
2022/03/05 11:16:42;;;;;;;7.27;6.57;;;13.40;42.50;;;;;;911669;154;27353;-79
2022/03/05 11:19:08;;;;;;;9.23;7.10;;;13.30;42.60;;;;;;911862;153;27454;-79
2022/03/05 11:21:35;;;;;;;7.90;7.10;;;13.40;43.00;;;;;;912413;154;27405;-79
2022/03/05 11:24:02;;;;;;;8.10;6.30;;;13.40;43.10;;;;;;911844;154;27369;-79
2022/03/05 11:26:28;;;;;;;5.50;5.00;;;13.50;43.00;;;;;;911855;154;27338;-79
2022/03/05 11:28:55;;;;;;;6.43;5.60;;;13.60;42.90;;;;;;911631;154;27346;-79
2022/03/05 11:31:21;;;;;;;6.87;6.13;;;13.70;43.00;;;;;;911931;153;27416;-79
2022/03/05 11:33:48;;;;;;;9.20;6.57;;;13.90;43.00;;;;;;911029;154;27373;-79
2022/03/05 11:36:17;;;;;;;8.27;6.93;;;14.00;42.90;;;;;;913577;154;27403;-78
2022/03/05 11:38:44;;;;;;;7.77;6.97;;;14.00;42.80;;;;;;894022;157;27410;-79
2022/03/05 11:41:20;;;;;;;8.10;6.70;;;14.10;42.50;;;;;;896612;157;27503;-78
2022/03/05 11:43:47;;;;;;;7.50;6.67;;;14.10;42.30;;;;;;913294;154;27425;-78
2022/03/05 11:46:25;;;;;;;7.07;6.37;;;14.10;41.90;;;;;;912805;154;27361;-78
2022/03/05 11:49:04;;;;;;;7.33;6.63;;;14.00;41.80;;;;;;913607;154;27288;-79
2022/03/05 11:51:30;;;;;;;8.27;6.70;;;13.90;41.60;;;;;;913715;154;27314;-79
2022/03/05 11:54:06;;;;;;;8.97;7.33;;;13.80;41.70;;;;;;913110;154;27315;-78
2022/03/05 11:56:32;;;;;;;9.60;7.13;;;13.70;41.70;;;;;;911782;154;27401;-79
2022/03/05 11:58:59;;;;;;;7.63;6.77;;;13.60;41.80;;;;;;913731;153;27386;-79
2022/03/05 12:01:38;;;;;;;7.90;7.00;;;13.50;41.60;;;;;;895387;157;27439;-78
2022/03/05 12:04:16;;;;;;;8.70;7.57;;;13.40;41.60;;;;;;897990;156;27454;-78
2022/03/05 12:06:43;;;;;;;7.80;6.53;;;13.20;41.50;;;;;;898377;157;27425;-79
2022/03/05 12:09:09;;;;;;;8.33;6.67;;;13.10;41.60;;;;;;912697;155;27399;-78
2022/03/05 12:11:36;;;;;;;8.37;7.30;;;13.00;41.90;;;;;;908770;154;27401;-78
2022/03/05 12:14:04;;;;;;;8.83;6.70;;;12.90;42.10;;;;;;913728;153;27378;-78
2022/03/05 12:16:29;;;;;;;11.80;7.23;;;12.90;42.20;;;;;;913034;154;27378;-78
2022/03/05 12:18:56;;;;;;;9.07;7.93;;;12.90;42.40;;;;;;913389;154;27404;-78
2022/03/05 12:21:28;;;;;;;7.80;7.00;;;12.90;42.40;;;;;;913461;153;27334;-78
2022/03/05 12:23:57;;;;;;;7.53;5.73;;;13.00;42.50;;;;;;912698;154;27342;-78
2022/03/05 12:26:24;;;;;;;13.63;6.60;;;13.00;42.60;;;;;;914122;154;27448;-78
2022/03/05 12:28:51;;;;;;;7.40;6.27;;;13.10;42.60;;;;;;912223;153;27493;-79
2022/03/05 12:31:20;;;;;;;7.67;6.87;;;13.20;42.60;;;;;;912893;154;27551;-78
2022/03/05 12:33:47;;;;;;;8.37;6.70;;;13.30;42.80;;;;;;912142;154;28204;-78
2022/03/05 12:36:16;;;;;;;7.07;5.90;;;13.40;42.70;;;;;;912114;154;27400;-78
2022/03/05 12:38:42;;;;;;;6.33;5.73;;;13.40;42.40;;;;;;916470;153;27353;-78
2022/03/05 12:41:09;;;;;;;8.10;6.90;;;13.50;42.40;;;;;;913248;154;27428;-78
2022/03/05 12:43:35;;;;;;;7.43;6.17;;;13.50;42.10;;;;;;896838;157;27416;-78